Time;durP1;ratioP1;P1;durP2;ratioP2;P2;SDS_P1;SDS_P2;PMS_P1;PMS_P2;Temp;Humidity;BMP_temperature;BMP_pressure;BME280_temperature;BME280_humidity;BME280_pressure;Samples;Min_cycle;Max_cycle;Signal;HPM_P1;HPM_P2
2023/06/15 00:00:14;;;;;;;7.85;2.78;;;;;;;;;;4931110;28;20050;-75
2023/06/15 00:02:41;;;;;;;7.75;2.63;;;;;;;;;;4902382;28;21059;-74
2023/06/15 00:05:07;;;;;;;6.03;2.83;;;;;;;;;;4932799;28;20062;-74
2023/06/15 00:07:33;;;;;;;4.50;2.67;;;;;;;;;;4914556;28;20158;-74
2023/06/15 00:10:00;;;;;;;6.68;2.55;;;;;;;;;;4919869;28;20079;-74
2023/06/15 00:12:26;;;;;;;10.05;3.00;;;;;;;;;;4914555;28;20060;-74
2023/06/15 00:14:52;;;;;;;10.25;3.28;;;;;;;;;;4931715;28;20031;-74
2023/06/15 00:17:18;;;;;;;11.80;3.28;;;;;;;;;;4920073;28;20050;-74
2023/06/15 00:19:44;;;;;;;7.38;3.60;;;;;;;;;;4917539;28;20057;-75
2023/06/15 00:22:14;;;;;;;7.65;3.03;;;;;;;;;;4917685;28;21304;-74
2023/06/15 00:24:44;;;;;;;4.55;3.42;;;;;;;;;;4932525;28;22069;-74
2023/06/15 00:27:10;;;;;;;8.73;3.10;;;;;;;;;;4918463;28;20047;-74
2023/06/15 00:29:37;;;;;;;7.68;3.50;;;;;;;;;;4916843;28;20055;-74
2023/06/15 00:32:06;;;;;;;5.10;3.10;;;;;;;;;;4896575;28;20047;-74
2023/06/15 00:34:32;;;;;;;6.93;3.28;;;;;;;;;;4916095;28;20047;-74
2023/06/15 00:36:58;;;;;;;6.28;3.25;;;;;;;;;;4913046;28;20047;-74
2023/06/15 00:39:24;;;;;;;5.97;3.20;;;;;;;;;;4930532;28;20055;-74
2023/06/15 00:41:51;;;;;;;5.25;3.30;;;;;;;;;;4911374;28;20679;-75
2023/06/15 00:44:17;;;;;;;6.78;2.88;;;;;;;;;;4915742;28;21085;-75
2023/06/15 00:46:43;;;;;;;8.07;3.38;;;;;;;;;;4915980;28;20090;-75
2023/06/15 00:49:09;;;;;;;6.25;3.50;;;;;;;;;;4930922;28;20428;-74
2023/06/15 00:51:41;;;;;;;5.93;3.00;;;;;;;;;;4927277;28;20063;-74
2023/06/15 00:54:07;;;;;;;5.72;3.00;;;;;;;;;;4929813;28;20098;-75
2023/06/15 00:56:33;;;;;;;7.45;3.53;;;;;;;;;;4896737;28;22016;-74
2023/06/15 00:58:59;;;;;;;4.45;2.80;;;;;;;;;;4899683;28;20477;-75
2023/06/15 01:01:26;;;;;;;9.38;3.55;;;;;;;;;;4883979;28;20191;-75
2023/06/15 01:03:54;;;;;;;9.77;3.40;;;;;;;;;;4914413;28;20039;-75
2023/06/15 01:06:24;;;;;;;11.13;3.85;;;;;;;;;;4913904;28;20035;-75
2023/06/15 01:08:52;;;;;;;7.07;3.28;;;;;;;;;;4928301;28;20047;-74
2023/06/15 01:11:18;;;;;;;5.78;3.47;;;;;;;;;;4913189;28;20113;-75
2023/06/15 01:13:45;;;;;;;7.50;3.67;;;;;;;;;;4911598;28;20051;-75
2023/06/15 01:16:21;;;;;;;7.40;3.40;;;;;;;;;;4925826;28;20570;-75
2023/06/15 01:18:50;;;;;;;5.93;3.83;;;;;;;;;;4911761;28;20790;-75
2023/06/15 01:21:18;;;;;;;5.68;3.83;;;;;;;;;;4912568;28;20039;-74
2023/06/15 01:23:50;;;;;;;9.95;4.15;;;;;;;;;;4924701;28;20106;-74
2023/06/15 01:26:18;;;;;;;11.93;3.53;;;;;;;;;;4924987;28;20133;-74
2023/06/15 01:28:49;;;;;;;7.60;3.88;;;;;;;;;;4914057;28;20057;-74
2023/06/15 01:31:16;;;;;;;7.10;3.50;;;;;;;;;;4926477;28;20129;-75
2023/06/15 01:33:48;;;;;;;6.93;3.85;;;;;;;;;;4925878;28;20152;-74
2023/06/15 01:36:15;;;;;;;7.82;3.50;;;;;;;;;;4925582;28;20054;-74
2023/06/15 01:38:41;;;;;;;6.80;3.67;;;;;;;;;;4912152;28;20047;-74
2023/06/15 01:41:08;;;;;;;8.48;4.00;;;;;;;;;;4924211;28;20062;-75
2023/06/15 01:43:36;;;;;;;6.78;3.78;;;;;;;;;;4911107;28;20046;-74
2023/06/15 01:46:03;;;;;;;12.05;3.45;;;;;;;;;;4909620;28;20077;-74
2023/06/15 01:48:29;;;;;;;8.50;3.63;;;;;;;;;;4922231;28;20051;-74
2023/06/15 01:50:56;;;;;;;11.05;3.50;;;;;;;;;;4925718;28;20075;-74
2023/06/15 01:53:22;;;;;;;8.57;3.08;;;;;;;;;;4908389;28;20062;-74
2023/06/15 01:55:49;;;;;;;6.93;3.55;;;;;;;;;;4910964;28;20054;-72
2023/06/15 01:58:16;;;;;;;6.88;3.92;;;;;;;;;;4926409;28;20047;-72
2023/06/15 02:00:46;;;;;;;10.70;3.30;;;;;;;;;;4909030;28;20173;-72
2023/06/15 02:03:12;;;;;;;6.35;3.60;;;;;;;;;;4910441;28;20086;-72
2023/06/15 02:05:40;;;;;;;8.18;3.38;;;;;;;;;;4925310;28;20043;-72
2023/06/15 02:08:06;;;;;;;11.95;3.58;;;;;;;;;;4912854;28;20051;-72
2023/06/15 02:10:33;;;;;;;7.35;3.70;;;;;;;;;;4926570;28;20625;-72
2023/06/15 02:12:59;;;;;;;8.02;3.85;;;;;;;;;;4927746;28;20134;-72
2023/06/15 02:15:25;;;;;;;7.00;3.75;;;;;;;;;;4915779;29;20048;-72
2023/06/15 02:17:59;;;;;;;8.80;3.47;;;;;;;;;;4914353;28;20051;-72
2023/06/15 02:20:25;;;;;;;;;;;;;;;;;;4912378;28;20052;-72
2023/06/15 02:22:52;;;;;;;6.45;3.50;;;;;;;;;;4916746;28;19996;-72
2023/06/15 02:25:21;;;;;;;11.57;3.80;;;;;;;;;;4912367;28;20047;-72
2023/06/15 02:27:47;;;;;;;7.45;3.55;;;;;;;;;;4929405;28;20962;-72
2023/06/15 02:30:14;;;;;;;5.28;3.40;;;;;;;;;;4928905;28;20050;-72
2023/06/15 02:32:42;;;;;;;4.95;3.15;;;;;;;;;;4914706;28;20122;-72
2023/06/15 02:35:11;;;;;;;9.00;3.60;;;;;;;;;;4913836;28;20055;-72
2023/06/15 02:37:37;;;;;;;5.63;3.25;;;;;;;;;;4912975;28;20045;-72
2023/06/15 02:40:04;;;;;;;5.03;3.25;;;;;;;;;;4929207;28;20043;-72
2023/06/15 02:42:30;;;;;;;7.93;3.70;;;;;;;;;;4924900;28;20086;-72
2023/06/15 02:44:56;;;;;;;11.90;3.78;;;;;;;;;;4925251;28;20047;-72
2023/06/15 02:47:23;;;;;;;8.02;3.60;;;;;;;;;;4894027;28;20067;-72
2023/06/15 02:49:49;;;;;;;10.65;3.55;;;;;;;;;;4926529;28;20039;-73
2023/06/15 02:52:15;;;;;;;5.85;4.05;;;;;;;;;;4911236;28;20059;-72
2023/06/15 02:54:42;;;;;;;4.05;3.42;;;;;;;;;;4913521;28;21337;-72
2023/06/15 02:57:08;;;;;;;8.52;3.60;;;;;;;;;;4905970;28;20042;-72
2023/06/15 02:59:35;;;;;;;5.22;3.60;;;;;;;;;;4924860;28;20586;-73
2023/06/15 03:02:04;;;;;;;7.75;3.47;;;;;;;;;;4925712;28;20668;-72
2023/06/15 03:04:30;;;;;;;8.05;3.92;;;;;;;;;;4916585;28;20055;-73
2023/06/15 03:06:57;;;;;;;7.68;4.28;;;;;;;;;;4927598;28;20048;-72
2023/06/15 03:09:23;;;;;;;3.85;3.38;;;;;;;;;;4929511;28;21883;-72
2023/06/15 03:11:52;;;;;;;8.98;4.18;;;;;;;;;;4909467;28;20061;-72
2023/06/15 03:14:19;;;;;;;6.25;3.78;;;;;;;;;;4912509;28;20035;-73
2023/06/15 03:16:48;;;;;;;4.68;3.63;;;;;;;;;;4929954;28;20050;-72
2023/06/15 03:19:17;;;;;;;6.22;3.72;;;;;;;;;;4918665;28;20511;-72
2023/06/15 03:21:47;;;;;;;8.18;3.85;;;;;;;;;;4915361;28;20043;-72
2023/06/15 03:24:13;;;;;;;11.05;3.90;;;;;;;;;;4933257;28;20055;-72
2023/06/15 03:26:49;;;;;;;4.55;3.40;;;;;;;;;;4924556;28;20523;-72
2023/06/15 03:29:15;;;;;;;10.95;4.53;;;;;;;;;;4901772;28;20051;-72
2023/06/15 03:31:44;;;;;;;9.55;3.88;;;;;;;;;;4912122;28;20558;-75
2023/06/15 03:34:10;;;;;;;8.63;4.15;;;;;;;;;;4918311;28;20070;-73
2023/06/15 03:36:37;;;;;;;7.53;4.15;;;;;;;;;;4930330;28;20102;-73
2023/06/15 03:39:03;;;;;;;4.43;3.40;;;;;;;;;;4916171;28;20061;-72
2023/06/15 03:41:34;;;;;;;8.35;3.42;;;;;;;;;;4929932;28;20039;-72
2023/06/15 03:44:01;;;;;;;11.13;4.10;;;;;;;;;;4914771;28;20954;-73
2023/06/15 03:46:27;;;;;;;8.27;4.15;;;;;;;;;;4920864;28;20583;-73
2023/06/15 03:48:53;;;;;;;8.77;3.80;;;;;;;;;;4909139;28;20066;-73
2023/06/15 03:51:19;;;;;;;6.05;4.30;;;;;;;;;;4893158;28;20070;-72
2023/06/15 03:53:45;;;;;;;6.90;4.47;;;;;;;;;;4932008;28;20047;-72
2023/06/15 03:56:11;;;;;;;10.68;4.03;;;;;;;;;;4931471;28;20119;-72
2023/06/15 03:58:37;;;;;;;8.50;4.50;;;;;;;;;;4917931;28;20055;-72
2023/06/15 04:01:07;;;;;;;9.43;4.25;;;;;;;;;;4914153;28;20054;-74
2023/06/15 04:03:36;;;;;;;5.72;4.20;;;;;;;;;;4930766;28;20141;-72
2023/06/15 04:06:06;;;;;;;7.55;4.00;;;;;;;;;;4928302;28;20048;-72
2023/06/15 04:08:32;;;;;;;4.55;4.00;;;;;;;;;;4929832;28;20134;-72
2023/06/15 04:10:59;;;;;;;10.43;4.82;;;;;;;;;;4911088;28;20058;-75
2023/06/15 04:13:25;;;;;;;7.55;4.05;;;;;;;;;;4929427;28;20058;-72
2023/06/15 04:15:52;;;;;;;7.28;4.25;;;;;;;;;;4926115;28;20103;-72
2023/06/15 04:18:19;;;;;;;7.00;4.35;;;;;;;;;;4913242;28;20055;-72
2023/06/15 04:20:45;;;;;;;12.35;4.20;;;;;;;;;;4927338;28;20051;-73
2023/06/15 04:23:11;;;;;;;6.05;3.72;;;;;;;;;;4927055;28;20795;-73
2023/06/15 04:25:40;;;;;;;10.00;4.47;;;;;;;;;;4911190;28;20047;-72
2023/06/15 04:28:10;;;;;;;6.28;4.85;;;;;;;;;;4917625;28;20493;-72
2023/06/15 04:30:37;;;;;;;11.07;4.53;;;;;;;;;;4912962;28;20494;-72
2023/06/15 04:33:04;;;;;;;6.90;4.40;;;;;;;;;;4913983;28;20063;-73
2023/06/15 04:35:31;;;;;;;7.60;4.53;;;;;;;;;;4929352;28;20046;-72
2023/06/15 04:37:58;;;;;;;12.32;4.50;;;;;;;;;;4917488;28;20103;-72
2023/06/15 04:40:25;;;;;;;9.50;4.43;;;;;;;;;;4927741;28;20078;-73
2023/06/15 04:43:04;;;;;;;8.45;4.80;;;;;;;;;;5073665;27;20456;-72
2023/06/15 04:45:30;;;;;;;6.72;4.50;;;;;;;;;;5084648;28;20056;-72
2023/06/15 04:47:56;;;;;;;13.05;4.68;;;;;;;;;;5068118;28;22140;-75
2023/06/15 04:50:22;;;;;;;5.55;3.17;;;;;;;;;;5069358;28;20032;-74
2023/06/15 04:52:48;;;;;;;5.75;3.75;;;;;;;;;;5067138;28;20048;-72
2023/06/15 04:55:14;;;;;;;8.05;3.45;;;;;;;;;;5068499;28;20039;-75
2023/06/15 04:57:40;;;;;;;7.90;3.30;;;;;;;;;;5068665;28;20122;-74
2023/06/15 05:00:08;;;;;;;5.10;3.20;;;;;;;;;;5066968;28;20040;-72
2023/06/15 05:02:34;;;;;;;7.30;3.45;;;;;;;;;;5068757;28;20044;-72
2023/06/15 05:05:00;;;;;;;5.20;3.25;;;;;;;;;;5058695;28;20059;-73
2023/06/15 05:07:26;;;;;;;8.23;3.35;;;;;;;;;;5067447;28;20087;-74
2023/06/15 05:09:53;;;;;;;7.07;4.20;;;;;;;;;;5049650;28;20068;-73
2023/06/15 05:12:20;;;;;;;7.38;3.63;;;;;;;;;;5068985;28;20094;-73
2023/06/15 05:14:46;;;;;;;4.25;3.10;;;;;;;;;;5067750;28;20041;-75
2023/06/15 05:17:12;;;;;;;4.80;3.45;;;;;;;;;;5066881;28;20055;-71
2023/06/15 05:19:39;;;;;;;5.13;3.10;;;;;;;;;;5067506;28;20048;-73
2023/06/15 05:22:06;;;;;;;5.43;3.08;;;;;;;;;;5067948;28;20174;-74
2023/06/15 05:24:34;;;;;;;5.95;3.05;;;;;;;;;;5068234;28;20050;-74
2023/06/15 05:27:02;;;;;;;4.30;3.40;;;;;;;;;;5068309;28;20078;-73
2023/06/15 05:29:28;;;;;;;5.82;3.33;;;;;;;;;;5067412;28;20048;-73
2023/06/15 05:31:59;;;;;;;6.68;3.45;;;;;;;;;;5064119;28;20064;-74
2023/06/15 05:34:26;;;;;;;12.32;3.60;;;;;;;;;;5062913;28;20048;-74
2023/06/15 05:36:52;;;;;;;6.43;3.03;;;;;;;;;;5061866;28;20404;-73
2023/06/15 05:39:18;;;;;;;6.82;3.22;;;;;;;;;;5064142;28;20051;-75
2023/06/15 05:41:45;;;;;;;6.38;3.58;;;;;;;;;;5045238;28;20052;-72
2023/06/15 05:44:11;;;;;;;6.07;3.22;;;;;;;;;;5061977;28;20040;-72
2023/06/15 05:46:37;;;;;;;8.93;3.13;;;;;;;;;;5061832;28;20428;-73
2023/06/15 05:49:03;;;;;;;5.55;3.05;;;;;;;;;;5065270;28;22456;-72
2023/06/15 05:51:29;;;;;;;7.47;3.67;;;;;;;;;;5066321;28;20097;-71
2023/06/15 05:53:55;;;;;;;7.18;3.00;;;;;;;;;;5056799;28;20480;-71
2023/06/15 05:56:21;;;;;;;7.30;3.20;;;;;;;;;;5053134;28;20040;-71
2023/06/15 05:58:47;;;;;;;8.85;3.45;;;;;;;;;;5054404;28;20769;-71
2023/06/15 06:01:13;;;;;;;9.27;3.30;;;;;;;;;;5054436;28;20083;-72
2023/06/15 06:03:41;;;;;;;5.45;3.70;;;;;;;;;;5053727;28;20511;-72
2023/06/15 06:06:08;;;;;;;9.07;3.30;;;;;;;;;;5053562;28;20131;-72
2023/06/15 06:08:34;;;;;;;6.03;2.92;;;;;;;;;;5053715;28;20045;-72
2023/06/15 06:11:01;;;;;;;5.07;3.00;;;;;;;;;;5053790;28;20044;-71
2023/06/15 06:13:27;;;;;;;9.00;3.58;;;;;;;;;;5055600;28;20082;-72
2023/06/15 06:15:53;;;;;;;3.90;3.10;;;;;;;;;;5053623;28;20497;-71
2023/06/15 06:18:20;;;;;;;8.95;3.10;;;;;;;;;;5036795;28;20051;-71
2023/06/15 06:20:46;;;;;;;5.18;2.63;;;;;;;;;;5055027;28;20048;-71
2023/06/15 06:23:12;;;;;;;6.30;2.90;;;;;;;;;;5051580;28;20052;-71
2023/06/15 06:25:38;;;;;;;7.90;2.60;;;;;;;;;;5055251;28;20046;-72
2023/06/15 06:28:04;;;;;;;4.93;3.05;;;;;;;;;;5053531;28;20036;-72
2023/06/15 06:30:30;;;;;;;3.95;2.45;;;;;;;;;;5050881;28;20059;-71
2023/06/15 06:32:56;;;;;;;8.40;3.10;;;;;;;;;;5053668;28;20048;-71
2023/06/15 06:35:22;;;;;;;6.07;2.72;;;;;;;;;;5053132;28;20044;-72
2023/06/15 06:37:49;;;;;;;3.83;2.80;;;;;;;;;;5040114;28;20070;-72
2023/06/15 06:40:15;;;;;;;3.03;2.50;;;;;;;;;;5036177;28;20047;-71
2023/06/15 06:42:41;;;;;;;4.82;2.80;;;;;;;;;;5053002;28;20048;-72
2023/06/15 06:45:07;;;;;;;7.53;2.80;;;;;;;;;;5053468;28;20052;-71
2023/06/15 06:47:33;;;;;;;5.25;2.60;;;;;;;;;;5054734;28;20040;-72
2023/06/15 06:49:59;;;;;;;4.82;2.72;;;;;;;;;;5036594;28;20043;-72
2023/06/15 06:52:26;;;;;;;9.05;2.85;;;;;;;;;;5052403;28;20056;-72
2023/06/15 06:54:52;;;;;;;4.85;2.67;;;;;;;;;;5052815;28;20048;-72
2023/06/15 06:57:18;;;;;;;8.18;3.13;;;;;;;;;;5036552;28;20107;-72
2023/06/15 06:59:44;;;;;;;8.75;2.55;;;;;;;;;;5053334;28;20067;-72
2023/06/15 07:02:10;;;;;;;10.48;3.42;;;;;;;;;;5057004;28;22010;-72
2023/06/15 07:04:36;;;;;;;8.23;3.13;;;;;;;;;;5051251;28;20049;-72
2023/06/15 07:07:03;;;;;;;4.07;2.83;;;;;;;;;;5037240;28;20131;-71
2023/06/15 07:09:29;;;;;;;5.90;2.90;;;;;;;;;;5052534;28;20109;-71
2023/06/15 07:11:55;;;;;;;7.10;2.85;;;;;;;;;;5052940;28;20074;-71
2023/06/15 07:14:21;;;;;;;8.43;2.85;;;;;;;;;;5053012;28;20070;-72
2023/06/15 07:16:47;;;;;;;6.57;3.08;;;;;;;;;;5052341;28;20044;-75
2023/06/15 07:19:13;;;;;;;6.85;3.17;;;;;;;;;;5044585;28;20055;-75
2023/06/15 07:21:39;;;;;;;5.88;2.95;;;;;;;;;;5052045;28;20093;-75
2023/06/15 07:24:05;;;;;;;5.85;3.10;;;;;;;;;;5054403;28;20044;-75
2023/06/15 07:26:31;;;;;;;10.02;3.45;;;;;;;;;;5037622;28;20052;-75
2023/06/15 07:28:58;;;;;;;5.18;3.35;;;;;;;;;;5054907;28;20040;-75
2023/06/15 07:31:24;;;;;;;10.00;3.70;;;;;;;;;;5051400;28;20775;-75
2023/06/15 07:33:53;;;;;;;7.20;3.50;;;;;;;;;;5052529;28;20047;-75
2023/06/15 07:36:19;;;;;;;8.02;3.92;;;;;;;;;;5051503;28;20780;-75
2023/06/15 07:38:46;;;;;;;6.10;3.70;;;;;;;;;;5054120;28;20413;-75
2023/06/15 07:41:12;;;;;;;5.50;3.60;;;;;;;;;;5050780;28;20124;-74
2023/06/15 07:43:38;;;;;;;14.52;3.78;;;;;;;;;;5052707;28;20948;-75
2023/06/15 07:46:04;;;;;;;6.22;3.42;;;;;;;;;;5051445;28;20047;-75
2023/06/15 07:48:30;;;;;;;7.95;3.85;;;;;;;;;;5053399;28;20090;-74
2023/06/15 07:50:57;;;;;;;10.20;3.78;;;;;;;;;;5052007;28;20159;-73
2023/06/15 07:53:23;;;;;;;7.55;3.53;;;;;;;;;;5053581;28;20044;-73
2023/06/15 07:55:49;;;;;;;8.68;3.50;;;;;;;;;;5053302;28;20052;-74
2023/06/15 07:58:15;;;;;;;10.43;3.47;;;;;;;;;;5053033;28;20060;-74
2023/06/15 08:00:41;;;;;;;5.18;2.80;;;;;;;;;;5051942;28;20043;-74
2023/06/15 08:03:07;;;;;;;6.22;3.60;;;;;;;;;;5053243;28;20429;-74
2023/06/15 08:05:33;;;;;;;6.00;3.72;;;;;;;;;;5052042;28;20166;-74
2023/06/15 08:07:59;;;;;;;5.75;3.63;;;;;;;;;;5053211;28;21044;-74
2023/06/15 08:10:25;;;;;;;14.65;3.67;;;;;;;;;;5033650;28;20044;-74
2023/06/15 08:12:51;;;;;;;13.88;3.95;;;;;;;;;;5052414;28;20048;-75
2023/06/15 08:15:18;;;;;;;8.35;3.40;;;;;;;;;;5055495;28;20089;-74
2023/06/15 08:17:44;;;;;;;10.15;3.95;;;;;;;;;;5053543;28;20049;-74
2023/06/15 08:20:10;;;;;;;4.60;3.40;;;;;;;;;;5052799;28;20043;-74
2023/06/15 08:22:37;;;;;;;8.25;3.13;;;;;;;;;;5051688;28;20044;-74
2023/06/15 08:25:03;;;;;;;9.88;2.90;;;;;;;;;;5052501;28;20040;-74
2023/06/15 08:27:29;;;;;;;5.05;2.75;;;;;;;;;;5043910;28;21717;-73
2023/06/15 08:29:57;;;;;;;8.23;3.10;;;;;;;;;;5050392;28;20131;-74
2023/06/15 08:32:23;;;;;;;5.40;3.30;;;;;;;;;;5052228;28;20053;-74
2023/06/15 08:34:49;;;;;;;4.18;2.78;;;;;;;;;;5032260;28;20048;-74
2023/06/15 08:37:15;;;;;;;5.60;3.10;;;;;;;;;;5051512;28;20098;-74
2023/06/15 08:39:41;;;;;;;17.85;3.47;;;;;;;;;;5052005;28;20052;-74
2023/06/15 08:42:08;;;;;;;6.78;3.10;;;;;;;;;;5051413;28;20405;-73
2023/06/15 08:44:35;;;;;;;7.00;3.30;;;;;;;;;;5050984;28;20051;-73
2023/06/15 08:47:03;;;;;;;5.75;3.55;;;;;;;;;;5030852;28;21579;-74
2023/06/15 08:49:32;;;;;;;7.07;3.08;;;;;;;;;;5051760;28;20044;-74
2023/06/15 08:52:00;;;;;;;8.80;3.20;;;;;;;;;;5052240;28;20286;-74
2023/06/15 08:54:32;;;;;;;6.10;3.13;;;;;;;;;;5050802;28;20481;-74
2023/06/15 08:56:58;;;;;;;8.90;3.72;;;;;;;;;;5050324;28;20048;-74
2023/06/15 08:59:25;;;;;;;9.77;3.70;;;;;;;;;;5052165;28;20584;-74
2023/06/15 09:01:53;;;;;;;6.63;3.10;;;;;;;;;;5053385;28;20080;-75
2023/06/15 09:04:20;;;;;;;5.18;3.28;;;;;;;;;;5051302;28;20111;-75
2023/06/15 09:06:46;;;;;;;5.47;3.17;;;;;;;;;;5052576;28;20075;-74
2023/06/15 09:09:13;;;;;;;6.78;3.33;;;;;;;;;;5050341;28;20219;-75
2023/06/15 09:11:40;;;;;;;9.82;3.95;;;;;;;;;;5051286;28;20075;-74
2023/06/15 09:14:09;;;;;;;7.30;3.20;;;;;;;;;;5031262;28;20052;-74
2023/06/15 09:16:35;;;;;;;7.25;2.97;;;;;;;;;;5051812;28;20500;-74
2023/06/15 09:19:03;;;;;;;6.75;3.00;;;;;;;;;;5049803;28;20044;-75
2023/06/15 09:21:30;;;;;;;7.22;3.00;;;;;;;;;;5051226;28;20059;-74
2023/06/15 09:24:04;;;;;;;7.38;3.22;;;;;;;;;;5049839;28;20059;-74
2023/06/15 09:26:30;;;;;;;6.45;2.95;;;;;;;;;;5050842;28;20460;-74
2023/06/15 09:28:56;;;;;;;6.07;3.33;;;;;;;;;;5054304;28;20889;-75
2023/06/15 09:31:30;;;;;;;6.45;3.25;;;;;;;;;;5053186;28;20076;-73
2023/06/15 09:34:06;;;;;;;11.43;3.33;;;;;;;;;;5053771;28;20564;-74
2023/06/15 09:36:38;;;;;;;3.88;3.30;;;;;;;;;;5056095;28;20136;-74
2023/06/15 09:39:04;;;;;;;8.73;3.63;;;;;;;;;;5055189;28;20120;-74
2023/06/15 09:41:31;;;;;;;4.68;3.05;;;;;;;;;;5055683;28;20049;-74
2023/06/15 09:44:01;;;;;;;8.57;3.25;;;;;;;;;;5052980;28;20044;-74
2023/06/15 09:46:30;;;;;;;7.80;2.95;;;;;;;;;;5054685;28;20074;-74
2023/06/15 09:48:56;;;;;;;5.95;3.03;;;;;;;;;;5054634;28;20460;-74
2023/06/15 09:51:27;;;;;;;6.78;3.40;;;;;;;;;;5034706;28;20049;-74
2023/06/15 09:53:54;;;;;;;7.50;2.90;;;;;;;;;;5053847;28;20113;-75
2023/06/15 09:56:24;;;;;;;7.13;2.90;;;;;;;;;;5054972;28;20052;-76
2023/06/15 09:58:50;;;;;;;8.63;3.13;;;;;;;;;;5053796;28;20082;-74
2023/06/15 10:01:18;;;;;;;6.68;3.05;;;;;;;;;;5054589;28;20135;-75
2023/06/15 10:03:52;;;;;;;4.97;2.60;;;;;;;;;;5052911;28;20041;-74
2023/06/15 10:06:19;;;;;;;4.65;2.90;;;;;;;;;;5028734;28;20665;-74
2023/06/15 10:08:51;;;;;;;5.18;3.05;;;;;;;;;;5051482;28;20044;-74
2023/06/15 10:11:18;;;;;;;5.95;2.70;;;;;;;;;;5053641;28;20560;-74
2023/06/15 10:13:44;;;;;;;6.93;3.33;;;;;;;;;;5054374;28;20183;-75
2023/06/15 10:16:13;;;;;;;5.55;2.80;;;;;;;;;;5054068;28;20424;-75
2023/06/15 10:18:39;;;;;;;5.47;3.17;;;;;;;;;;5054457;28;20044;-75
2023/06/15 10:21:07;;;;;;;6.15;3.33;;;;;;;;;;5054013;28;20055;-75
2023/06/15 10:23:33;;;;;;;5.75;3.10;;;;;;;;;;5055244;28;20044;-75
2023/06/15 10:26:00;;;;;;;7.00;3.33;;;;;;;;;;5053850;28;20444;-74
2023/06/15 10:28:27;;;;;;;6.82;2.83;;;;;;;;;;5053723;28;20454;-75
2023/06/15 10:31:01;;;;;;;7.55;3.00;;;;;;;;;;5053453;28;20589;-75
2023/06/15 10:33:34;;;;;;;5.25;3.20;;;;;;;;;;5052519;28;20044;-75
2023/06/15 10:36:03;;;;;;;5.10;3.00;;;;;;;;;;5053703;28;20044;-77
2023/06/15 10:38:51;;;;;;;3.40;2.80;;;;;;;;;;5053736;28;20590;-76
2023/06/15 10:41:18;;;;;;;11.27;2.80;;;;;;;;;;5052709;28;20051;-76
2023/06/15 10:43:57;;;;;;;5.38;2.90;;;;;;;;;;5051728;28;20060;-75
2023/06/15 10:46:28;;;;;;;9.48;2.90;;;;;;;;;;5052467;28;20129;-76
2023/06/15 10:48:54;;;;;;;8.10;2.60;;;;;;;;;;5034327;28;20048;-76
2023/06/15 10:51:25;;;;;;;4.63;2.70;;;;;;;;;;5044332;28;20048;-76
2023/06/15 10:53:51;;;;;;;5.47;2.78;;;;;;;;;;5053372;28;20063;-76
2023/06/15 10:56:19;;;;;;;5.88;2.90;;;;;;;;;;5052716;28;20040;-76
2023/06/15 10:58:56;;;;;;;4.60;2.88;;;;;;;;;;5052698;28;20048;-76
2023/06/15 11:01:32;;;;;;;4.97;2.63;;;;;;;;;;5054526;28;20165;-75
2023/06/15 11:03:58;;;;;;;5.78;2.30;;;;;;;;;;5053303;28;20052;-77
2023/06/15 11:06:32;;;;;;;5.20;2.70;;;;;;;;;;5049983;28;20421;-77
2023/06/15 11:09:03;;;;;;;5.80;2.65;;;;;;;;;;5053151;28;20037;-77
2023/06/15 11:11:33;;;;;;;6.45;2.60;;;;;;;;;;5053076;28;20041;-77
2023/06/15 11:14:06;;;;;;;4.50;2.42;;;;;;;;;;5035859;28;20131;-77
2023/06/15 11:16:36;;;;;;;4.32;3.00;;;;;;;;;;5053199;28;20048;-77
2023/06/15 11:19:14;;;;;;;3.45;2.38;;;;;;;;;;5052281;28;20434;-77
2023/06/15 11:21:41;;;;;;;6.10;2.55;;;;;;;;;;5033930;28;20044;-77
2023/06/15 11:24:13;;;;;;;8.77;3.22;;;;;;;;;;5051106;28;20055;-75
2023/06/15 11:26:50;;;;;;;4.70;2.80;;;;;;;;;;5052459;28;20167;-75
2023/06/15 11:29:22;;;;;;;6.72;2.60;;;;;;;;;;5051925;28;20435;-75
2023/06/15 11:31:49;;;;;;;7.35;2.67;;;;;;;;;;5051187;28;20048;-75
2023/06/15 11:34:15;;;;;;;3.97;2.60;;;;;;;;;;5050540;28;20058;-75
2023/06/15 11:36:41;;;;;;;5.18;2.45;;;;;;;;;;5051755;28;20052;-75
2023/06/15 11:39:17;;;;;;;7.00;2.50;;;;;;;;;;5051342;28;20671;-75
2023/06/15 11:41:47;;;;;;;7.10;2.55;;;;;;;;;;5050756;28;20057;-75
2023/06/15 11:44:13;;;;;;;6.53;2.80;;;;;;;;;;5051137;28;20132;-75
2023/06/15 11:46:40;;;;;;;3.88;2.83;;;;;;;;;;5040053;28;20036;-75
2023/06/15 11:49:10;;;;;;;5.45;2.35;;;;;;;;;;5052839;28;20044;-75
2023/06/15 11:51:36;;;;;;;6.75;2.30;;;;;;;;;;5050558;28;20057;-75
2023/06/15 11:54:07;;;;;;;8.10;3.03;;;;;;;;;;5052572;28;20060;-76
2023/06/15 11:56:33;;;;;;;4.53;2.15;;;;;;;;;;5051217;28;20484;-75
2023/06/15 11:59:00;;;;;;;4.93;2.40;;;;;;;;;;5052312;28;21888;-75
2023/06/15 12:01:27;;;;;;;4.68;2.00;;;;;;;;;;5050613;28;20408;-76
2023/06/15 12:03:53;;;;;;;5.50;2.08;;;;;;;;;;5051120;28;20342;-75
2023/06/15 12:06:20;;;;;;;6.80;2.63;;;;;;;;;;5050384;28;22272;-75
2023/06/15 12:08:47;;;;;;;3.55;2.60;;;;;;;;;;5067977;28;20624;-75
2023/06/15 12:11:14;;;;;;;4.82;1.95;;;;;;;;;;5052785;28;20464;-75
2023/06/15 12:13:40;;;;;;;3.88;2.17;;;;;;;;;;5050545;28;20425;-75
2023/06/15 12:16:07;;;;;;;3.78;2.50;;;;;;;;;;5051752;28;20047;-75
2023/06/15 12:18:34;;;;;;;10.50;2.45;;;;;;;;;;5050956;28;20051;-75
2023/06/15 12:21:03;;;;;;;7.40;2.13;;;;;;;;;;5051461;28;20392;-76
2023/06/15 12:23:33;;;;;;;3.95;2.00;;;;;;;;;;5027185;28;20052;-76
2023/06/15 12:26:03;;;;;;;7.78;1.92;;;;;;;;;;5051593;28;20044;-75
2023/06/15 12:28:31;;;;;;;4.88;2.10;;;;;;;;;;5030727;28;20040;-75
2023/06/15 12:31:02;;;;;;;4.18;2.03;;;;;;;;;;5050415;28;20142;-75
2023/06/15 12:33:29;;;;;;;6.63;2.28;;;;;;;;;;5050575;28;20055;-75
2023/06/15 12:35:56;;;;;;;5.63;2.10;;;;;;;;;;5050424;28;20680;-75
2023/06/15 12:38:26;;;;;;;4.22;2.13;;;;;;;;;;5051466;28;20039;-75
2023/06/15 12:40:52;;;;;;;3.40;2.00;;;;;;;;;;5051573;28;20050;-75
2023/06/15 12:43:19;;;;;;;7.85;2.33;;;;;;;;;;5051317;28;20071;-75
2023/06/15 12:45:46;;;;;;;3.97;2.13;;;;;;;;;;5058970;28;20049;-75
2023/06/15 12:48:12;;;;;;;3.50;2.08;;;;;;;;;;5050658;28;20047;-75
2023/06/15 12:50:38;;;;;;;4.07;2.13;;;;;;;;;;5049457;28;20111;-75
2023/06/15 12:53:05;;;;;;;8.13;2.17;;;;;;;;;;5033686;28;20068;-75
2023/06/15 12:55:31;;;;;;;5.65;2.10;;;;;;;;;;5050225;28;20163;-75
2023/06/15 12:57:57;;;;;;;3.88;2.15;;;;;;;;;;5052284;28;20045;-76
2023/06/15 13:00:28;;;;;;;5.28;2.40;;;;;;;;;;5049949;28;20875;-76
2023/06/15 13:02:55;;;;;;;8.43;2.22;;;;;;;;;;5051061;28;20052;-75
2023/06/15 13:05:21;;;;;;;5.40;2.25;;;;;;;;;;5017094;28;20044;-76
2023/06/15 13:07:47;;;;;;;3.28;2.50;;;;;;;;;;5053996;28;20553;-75
2023/06/15 13:10:14;;;;;;;5.95;2.15;;;;;;;;;;5056602;28;20032;-76
2023/06/15 13:12:41;;;;;;;3.63;2.55;;;;;;;;;;5054758;28;20059;-76
2023/06/15 13:15:07;;;;;;;4.03;2.60;;;;;;;;;;5054950;28;20567;-76
2023/06/15 13:17:37;;;;;;;2.97;1.90;;;;;;;;;;5053973;28;20083;-75
2023/06/15 13:20:07;;;;;;;8.45;3.05;;;;;;;;;;5053903;28;20505;-75
2023/06/15 13:22:34;;;;;;;3.45;2.10;;;;;;;;;;5053336;28;20128;-76
2023/06/15 13:25:01;;;;;;;4.70;2.25;;;;;;;;;;5053923;28;21622;-76
2023/06/15 13:27:27;;;;;;;5.00;2.20;;;;;;;;;;5054689;28;20044;-76
2023/06/15 13:29:53;;;;;;;6.28;2.38;;;;;;;;;;5053319;28;20044;-74
2023/06/15 13:32:19;;;;;;;6.43;2.03;;;;;;;;;;5055948;28;20040;-74
2023/06/15 13:34:45;;;;;;;4.85;2.65;;;;;;;;;;5045732;28;20040;-73
2023/06/15 13:37:16;;;;;;;4.93;2.50;;;;;;;;;;5055226;28;20033;-73
2023/06/15 13:39:42;;;;;;;6.35;2.38;;;;;;;;;;5053481;28;20052;-73
2023/06/15 13:42:09;;;;;;;8.15;2.25;;;;;;;;;;5046384;28;20059;-73
2023/06/15 13:44:35;;;;;;;7.70;2.65;;;;;;;;;;5045688;28;20071;-75
2023/06/15 13:47:01;;;;;;;5.22;2.00;;;;;;;;;;5049047;28;20050;-74
2023/06/15 13:49:27;;;;;;;5.35;2.20;;;;;;;;;;5047968;28;20044;-75
2023/06/15 13:51:53;;;;;;;4.50;2.10;;;;;;;;;;5046228;28;20059;-74
2023/06/15 13:54:20;;;;;;;3.55;2.15;;;;;;;;;;5054877;28;20126;-74
2023/06/15 13:56:46;;;;;;;4.80;2.10;;;;;;;;;;5054005;28;20519;-75
2023/06/15 13:59:12;;;;;;;6.32;2.30;;;;;;;;;;5051132;28;20083;-75
2023/06/15 14:01:38;;;;;;;4.57;1.83;;;;;;;;;;5030654;28;20205;-74
2023/06/15 14:04:05;;;;;;;3.85;2.10;;;;;;;;;;5044567;28;20033;-74
2023/06/15 14:06:31;;;;;;;2.25;2.03;;;;;;;;;;5053368;28;20075;-74
2023/06/15 14:08:57;;;;;;;4.85;2.10;;;;;;;;;;5047653;28;20151;-75
2023/06/15 14:11:25;;;;;;;3.05;1.95;;;;;;;;;;5029021;28;20106;-75
2023/06/15 14:13:52;;;;;;;6.57;2.40;;;;;;;;;;5047156;28;20165;-74
2023/06/15 14:16:21;;;;;;;6.22;2.53;;;;;;;;;;5045129;28;20063;-75
2023/06/15 14:18:51;;;;;;;5.78;2.20;;;;;;;;;;5025205;28;20118;-74
2023/06/15 14:21:18;;;;;;;10.52;2.53;;;;;;;;;;5047569;28;20040;-75
2023/06/15 14:23:44;;;;;;;4.10;2.40;;;;;;;;;;5046866;28;20170;-76
2023/06/15 14:26:10;;;;;;;5.72;2.08;;;;;;;;;;5029105;28;20086;-76
2023/06/15 14:28:36;;;;;;;7.03;2.33;;;;;;;;;;5051225;28;20036;-76
2023/06/15 14:31:03;;;;;;;5.40;2.17;;;;;;;;;;5034990;28;20957;-76
2023/06/15 14:33:29;;;;;;;3.75;2.47;;;;;;;;;;5053749;28;20051;-76
2023/06/15 14:35:56;;;;;;;7.68;2.38;;;;;;;;;;5053857;28;20724;-76
2023/06/15 14:38:23;;;;;;;3.85;1.90;;;;;;;;;;5020018;28;20079;-76
2023/06/15 14:40:52;;;;;;;4.18;2.00;;;;;;;;;;5052643;28;20043;-76
2023/06/15 14:43:18;;;;;;;3.80;2.10;;;;;;;;;;5052514;28;20064;-77